This is the latest recevied weather packets stored in our database for station/object K7JGC-9. If no packets are shown the sender has not sent any weather packets the latest 10 day(s).
| Time | Temp. | Humidity | Pressure | Rain* | Wind** | Luminosity | Snow |
|---|---|---|---|---|---|---|---|
| 1777608740 | 17.22° C | 57% | 1014.8 hPa | 0 mm | - | 0 W/m² | - |
| 1777606937 | 18.33° C | 54% | 1014.3 hPa | 0 mm | - | 0 W/m² | - |
| 1777605133 | 19.44° C | 49% | 1014.3 hPa | 0 mm | - | 1 W/m² | - |
| 1777603333 | 20.56° C | 45% | 1014.3 hPa | 0 mm | - | 5 W/m² | - |
| 1777601530 | 18.33° C | 85% | 1014.3 hPa | 0 mm | - | 12 W/m² | - |
| 1777599730 | 18.89° C | 89% | 1014.4 hPa | 0 mm | - | 15 W/m² | - |
| 1777597927 | 20° C | 86% | 1014.5 hPa | 0 mm | - | 19 W/m² | - |
| 1777596126 | 20.56° C | 81% | 1014.6 hPa | 0 mm | - | 25 W/m² | - |
| 1777594326 | 21.67° C | 68% | 1014.9 hPa | 0 mm | - | 31 W/m² | - |
| 1777592527 | 24.44° C | 59% | 1015.1 hPa | 0 mm | - | 38 W/m² | - |
| 1777590726 | 29.44° C | 58% | 1015.4 hPa | 0 mm | - | 555 W/m² | - |
| 1777588923 | 30° C | 58% | 1015.8 hPa | 0 mm | - | 627 W/m² | - |
| 1777587120 | 30° C | 57% | 1016.1 hPa | 0 mm | - | 614 W/m² | - |
| 1777585319 | 28.89° C | 61% | 1016.8 hPa | 0 mm | - | 611 W/m² | - |
| 1777583517 | 27.78° C | 64% | 1016.6 hPa | 0 mm | - | 507 W/m² | - |
| 1777581715 | 27.22° C | 55% | 1017 hPa | 0 mm | - | 581 W/m² | - |
| 1777579915 | 26.11° C | 63% | 1017.4 hPa | 0 mm | - | 647 W/m² | - |
| 1777578113 | 22.78° C | 74% | 1017.8 hPa | 0 mm | - | 640 W/m² | - |
| 1777576311 | 21.11° C | 74% | 1018.2 hPa | 0 mm | - | 350 W/m² | - |
| 1777574508 | 20.56° C | 75% | 1018.3 hPa | 0 mm | - | 159 W/m² | - |
| 1777572705 | 16.11° C | 83% | 1018.9 hPa | 0 mm | - | 127 W/m² | - |
| 1777570903 | 15° C | 87% | 1019.2 hPa | 0 mm | - | 107 W/m² | - |
| 1777569098 | 14.44° C | 95% | 1019.4 hPa | 0 mm | - | 104 W/m² | - |
| 1777567297 | 13.33° C | 98% | 1019.8 hPa | 0 mm | - | 92 W/m² | - |
| 1777565497 | 11.67° C | 98% | 1019.7 hPa | 0 mm | - | 68 W/m² | - |
* Rain latest hour (hover to see other rain measurements)
** Current wind speed in m/s (hover to see current wind gust speed)